GIA1102 WIII-WAHS
Flight info
| Callsign | GIA1102 |
|---|---|
| Flight time | N/A |
| Altitude | 25000 |
| Route | CA |
| Aircraft | B738/M-SDE2E3FGHIRWXY/LB1 |
Departure
| Time | 2026-05-01 13:29 |
|---|---|
| Airport | Soekarno-Hatta International Airport (WIII) |
Arrival
| Time | N/A |
|---|---|
| Airport | Jenderal Ahmad Yani Airport (WAHS) |
| Time | Latitude | Longitude | Altitude | Speed | Heading |
|---|---|---|---|---|---|
| 2026-05-01 13:07 | -6.11528 | 106.66462 | 37 ft | 0 kts | 339° |
| 2026-05-01 13:24 | -6.11520 | 106.66463 | 35 ft | 3 kts | 9° |
| 2026-05-01 13:24 | -6.11510 | 106.66490 | 34 ft | 6 kts | 53° |
| 2026-05-01 13:24 | -6.11464 | 106.66504 | 36 ft | 7 kts | 40° |
| 2026-05-01 13:25 | -6.11467 | 106.66632 | 37 ft | 14 kts | 101° |
| 2026-05-01 13:25 | -6.11488 | 106.66746 | 37 ft | 19 kts | 100° |
| 2026-05-01 13:25 | -6.11492 | 106.66844 | 37 ft | 11 kts | 78° |
| 2026-05-01 13:25 | -6.11451 | 106.66932 | 37 ft | 15 kts | 49° |
| 2026-05-01 13:26 | -6.11407 | 106.66945 | 37 ft | 5 kts | 345° |
| 2026-05-01 13:26 | -6.11355 | 106.66925 | 37 ft | 11 kts | 336° |
| 2026-05-01 13:26 | -6.11270 | 106.66888 | 36 ft | 16 kts | 336° |
| 2026-05-01 13:26 | -6.11167 | 106.66846 | 37 ft | 13 kts | 339° |
| 2026-05-01 13:27 | -6.11069 | 106.66807 | 38 ft | 9 kts | 338° |
| 2026-05-01 13:27 | -6.11065 | 106.66806 | 38 ft | 2 kts | 338° |
| 2026-05-01 13:27 | -6.10967 | 106.66754 | 38 ft | 12 kts | 304° |
| 2026-05-01 13:28 | -6.11021 | 106.66590 | 39 ft | 16 kts | 250° |
| 2026-05-01 13:28 | -6.11070 | 106.66469 | 37 ft | 24 kts | 249° |
| 2026-05-01 13:29 | -6.11621 | 106.65077 | 146 ft | 172 kts | 249° |
| 2026-05-01 13:29 | -6.12557 | 106.62631 | 1842 ft | 195 kts | 248° |
| 2026-05-01 13:30 | -6.12362 | 106.57521 | 4618 ft | 216 kts | 304° |
| 2026-05-01 13:31 | -6.10871 | 106.54861 | 5693 ft | 222 kts | 296° |
| 2026-05-01 13:31 | -6.08941 | 106.50650 | 7363 ft | 220 kts | 298° |
| 2026-05-01 13:32 | -6.06464 | 106.49254 | 8460 ft | 212 kts | 9° |
| 2026-05-01 13:33 | -6.02020 | 106.51062 | 9704 ft | 246 kts | 40° |
| 2026-05-01 13:33 | -6.00790 | 106.53988 | 11105 ft | 234 kts | 84° |
| 2026-05-01 13:34 | -6.00388 | 106.57296 | 12269 ft | 241 kts | 83° |
| 2026-05-01 13:34 | -5.99932 | 106.60657 | 13496 ft | 244 kts | 83° |
| 2026-05-01 13:35 | -5.99432 | 106.64039 | 14667 ft | 243 kts | 82° |
| 2026-05-01 13:35 | -5.99178 | 106.65703 | 15252 ft | 239 kts | 82° |
| 2026-05-01 13:35 | -5.98674 | 106.68935 | 16385 ft | 228 kts | 81° |
| 2026-05-01 13:36 | -5.98427 | 106.70514 | 16628 ft | 240 kts | 81° |
| 2026-05-01 13:36 | -5.98158 | 106.72222 | 16757 ft | 255 kts | 81° |
| 2026-05-01 13:36 | -5.97565 | 106.75968 | 17000 ft | 286 kts | 81° |
| 2026-05-01 13:37 | -5.97243 | 106.77999 | 17084 ft | 305 kts | 81° |
| 2026-05-01 13:37 | -5.97082 | 106.80180 | 17232 ft | 322 kts | 99° |
| 2026-05-01 13:37 | -5.97738 | 106.82355 | 17703 ft | 328 kts | 112° |
| 2026-05-01 13:37 | -5.98695 | 106.84453 | 18255 ft | 332 kts | 115° |
| 2026-05-01 13:38 | -6.00718 | 106.88630 | 19275 ft | 337 kts | 114° |
| 2026-05-01 13:38 | -6.01709 | 106.90772 | 19789 ft | 340 kts | 114° |
| 2026-05-01 13:38 | -6.02682 | 106.92952 | 20284 ft | 343 kts | 113° |
| 2026-05-01 13:39 | -6.03640 | 106.95159 | 20773 ft | 346 kts | 112° |